Time;durP1;ratioP1;P1;durP2;ratioP2;P2;SDS_P1;SDS_P2;PMS_P1;PMS_P2;Temp;Humidity;BMP_temperature;BMP_pressure;BME280_temperature;BME280_humidity;BME280_pressure;Samples;Min_cycle;Max_cycle;Signal;HPM_P1;HPM_P2
2022/05/29 00:05:12;;;;;;;11.50;4.67;;;13.80;69.70;;;16.54;52.65;101361.78;5163953;27;20634;-63
2022/05/29 00:07:40;;;;;;;11.17;3.90;;;13.70;70.00;;;16.51;52.88;101367.44;5109601;28;20188;-63
2022/05/29 00:10:10;;;;;;;10.10;4.37;;;13.60;69.80;;;16.49;52.70;101353.53;5112229;28;20198;-62
2022/05/29 00:12:39;;;;;;;16.17;4.80;;;13.60;70.10;;;16.49;53.31;101357.03;5110668;28;20203;-61
2022/05/29 00:15:07;;;;;;;14.03;4.50;;;13.60;70.20;;;16.53;53.10;101346.81;5115887;28;20663;-62
2022/05/29 00:17:34;;;;;;;11.40;4.20;;;13.60;70.20;;;16.56;52.55;101338.47;5110398;28;20249;-62
2022/05/29 00:20:02;;;;;;;13.50;4.13;;;13.60;69.60;;;16.59;52.33;101338.06;5066729;28;20586;-62
2022/05/29 00:25:10;;;;;;;13.57;4.60;;;13.60;69.60;;;16.68;52.20;101336.88;5162105;27;21155;-61
2022/05/29 00:27:37;;;;;;;12.33;4.60;;;13.70;69.50;;;16.69;52.06;101335.84;5110238;28;20198;-62
2022/05/29 00:30:07;;;;;;;15.23;4.90;;;13.60;68.80;;;16.68;51.77;101331.56;5100492;28;20205;-62
2022/05/29 00:32:43;;;;;;;9.67;3.73;;;13.70;68.50;;;16.67;51.62;101338.72;5065257;28;20212;-62
2022/05/29 00:35:10;;;;;;;9.87;4.13;;;13.60;68.30;;;16.68;51.92;101331.56;5058428;28;20229;-64
2022/05/29 00:37:39;;;;;;;10.13;3.57;;;13.70;68.60;;;16.68;51.00;101326.25;5077472;28;20189;-62
2022/05/29 00:40:26;;;;;;;9.20;4.03;;;13.70;67.80;;;16.66;51.16;101323.75;5004627;28;20205;-62
2022/05/29 00:45:45;;;;;;;10.87;3.90;;;13.70;67.80;;;16.69;50.95;101325.22;5160990;27;20654;-62
2022/05/29 00:48:16;;;;;;;8.27;3.37;;;13.70;67.50;;;16.68;50.93;101326.25;5111103;28;20231;-62
2022/05/29 00:50:44;;;;;;;13.00;4.20;;;13.70;67.30;;;16.70;51.05;101318.88;5130054;27;20191;-62
2022/05/29 00:53:14;;;;;;;10.77;3.83;;;13.70;67.60;;;16.72;50.96;101322.97;5126160;28;20206;-62
2022/05/29 00:55:57;;;;;;;9.60;3.87;;;13.70;67.60;;;16.74;50.94;101326.25;5034920;28;20222;-62
2022/05/29 00:58:26;;;;;;;13.73;4.63;;;13.70;67.30;;;16.76;50.61;101332.19;5000486;28;20198;-62
2022/05/29 01:00:56;;;;;;;11.23;3.60;;;13.70;66.90;;;16.73;50.64;101324.63;5004208;28;20690;-62
2022/05/29 01:03:38;;;;;;;10.87;3.53;;;13.70;67.10;;;16.72;50.81;101314.19;4987697;28;20281;-61
2022/05/29 01:06:29;;;;;;;8.80;3.57;;;13.70;67.30;;;16.72;50.63;101309.69;5152697;27;20639;-64
2022/05/29 01:09:00;;;;;;;10.00;3.50;;;13.70;67.10;;;16.73;50.73;101302.53;5130060;28;20676;-62
2022/05/29 01:11:40;;;;;;;15.83;3.93;;;13.70;67.00;;;16.72;50.76;101306.22;5129610;28;20245;-62
2022/05/29 01:14:23;;;;;;;6.20;3.20;;;13.70;67.00;;;16.70;50.21;101300.28;5101644;28;20300;-63
2022/05/29 01:17:04;;;;;;;15.03;3.40;;;13.70;67.10;;;16.71;50.16;101299.28;5053798;28;20194;-61
2022/05/29 01:19:59;;;;;;;7.03;3.30;;;13.70;67.10;;;16.69;50.52;101301.28;4950743;28;20212;-61
2022/05/29 01:25:22;;;;;;;11.63;3.10;;;13.70;66.90;;;16.59;50.73;101295.56;4791335;29;20218;-61
2022/05/29 01:30:33;;;;;;;10.67;4.47;;;13.70;66.90;;;16.63;50.58;101289.63;5171852;27;20633;-61
2022/05/29 01:33:09;;;;;;;14.60;4.77;;;13.70;66.80;;;16.64;50.47;101291.25;5133263;27;20222;-59
2022/05/29 01:35:45;;;;;;;11.40;3.90;;;13.70;66.80;;;16.65;50.58;101294.75;5097881;28;20224;-60
2022/05/29 01:38:21;;;;;;;11.93;3.77;;;13.70;67.20;;;16.66;50.60;101285.75;5084534;28;20203;-62
2022/05/29 01:40:58;;;;;;;14.17;3.90;;;13.70;67.10;;;16.66;50.52;101291.06;5073266;28;20200;-61
2022/05/29 01:43:35;;;;;;;12.13;4.00;;;13.70;67.10;;;16.66;50.51;101285.75;5084974;28;20211;-62
2022/05/29 01:46:07;;;;;;;8.93;3.17;;;13.70;67.20;;;16.69;50.75;101285.34;4983208;28;20278;-64
2022/05/29 01:51:17;;;;;;;8.33;3.40;;;13.70;67.40;;;16.74;50.28;101277.56;5172075;27;20634;-61
2022/05/29 01:53:52;;;;;;;8.43;3.07;;;13.70;66.90;;;16.74;50.29;101270.44;5132066;27;20199;-60
2022/05/29 01:56:25;;;;;;;10.20;3.40;;;13.70;66.70;;;16.73;50.20;101273.28;5103564;28;20303;-63
2022/05/29 01:59:00;;;;;;;8.70;2.83;;;13.70;66.40;;;16.72;50.13;101271.66;5106448;28;20590;-63
2022/05/29 02:01:33;;;;;;;11.43;2.93;;;13.70;66.60;;;16.73;49.82;101265.31;5063909;28;20255;-62
2022/05/29 02:04:07;;;;;;;10.67;3.37;;;13.70;66.50;;;16.74;50.23;101261.63;4989716;28;20564;-62
2022/05/29 02:09:23;;;;;;;7.53;3.23;;;13.70;66.20;;;16.72;50.30;101261.00;4906030;29;20221;-63
2022/05/29 02:14:36;;;;;;;7.47;2.87;;;13.70;66.20;;;16.75;49.68;101256.13;5169356;27;20630;-62
2022/05/29 02:17:10;;;;;;;7.60;3.20;;;13.70;66.10;;;16.75;49.84;101253.47;5109620;28;20191;-64
2022/05/29 02:19:45;;;;;;;10.00;3.70;;;13.70;66.00;;;16.78;49.87;101252.25;5119138;28;20639;-62
2022/05/29 02:22:17;;;;;;;11.43;3.60;;;13.70;66.20;;;16.77;49.81;101250.59;5098787;28;20206;-61
2022/05/29 02:24:49;;;;;;;7.90;3.30;;;13.80;66.00;;;16.76;49.94;101244.44;5037015;28;20230;-62
2022/05/29 02:27:26;;;;;;;7.00;2.33;;;13.70;66.00;;;16.77;49.86;101239.97;4971319;28;20200;-64
2022/05/29 02:29:54;;;;;;;10.17;3.47;;;13.80;66.00;;;16.82;49.99;101248.16;4915362;29;20259;-62
2022/05/29 02:33:36;;;;;;;8.97;3.33;;;13.80;66.10;;;16.77;50.07;101235.47;4902992;29;20235;-62
2022/05/29 02:38:57;;;;;;;9.17;3.70;;;13.80;66.10;;;16.88;49.80;101234.03;5171799;27;21156;-61
2022/05/29 02:41:48;;;;;;;8.37;3.63;;;13.90;66.00;;;16.92;49.89;101224.66;5098801;28;20218;-64
2022/05/29 02:44:31;;;;;;;9.57;3.03;;;13.90;65.80;;;16.91;49.31;101225.66;5127588;27;20211;-62
2022/05/29 02:47:11;;;;;;;12.80;3.27;;;13.90;65.50;;;16.91;49.54;101220.34;5124612;28;20195;-62
2022/05/29 02:49:50;;;;;;;7.43;2.97;;;13.90;65.40;;;16.89;49.62;101220.56;5053228;28;20198;-62
2022/05/29 02:52:19;;;;;;;8.90;3.30;;;13.90;65.60;;;16.91;49.65;101220.34;4976527;28;20237;-62
2022/05/29 02:54:47;;;;;;;9.40;3.53;;;13.90;65.70;;;16.91;49.75;101215.03;4956792;28;20224;-62
2022/05/29 02:57:19;;;;;;;11.57;3.33;;;13.90;65.50;;;16.92;49.39;101221.97;4944463;28;20239;-62
2022/05/29 03:02:31;;;;;;;9.90;3.47;;;13.90;65.40;;;16.89;49.50;101223.22;5171761;27;20396;-63
2022/05/29 03:05:09;;;;;;;8.40;2.67;;;13.90;65.30;;;16.87;49.35;101216.47;5117618;27;20223;-63
2022/05/29 03:07:48;;;;;;;4.27;2.73;;;13.90;65.30;;;16.87;49.56;101209.31;5103745;27;20601;-62
2022/05/29 03:10:20;;;;;;;9.63;3.23;;;13.90;65.60;;;16.87;49.49;101211.13;5141950;27;20528;-62
2022/05/29 03:13:03;;;;;;;7.20;3.13;;;13.90;65.50;;;16.81;49.64;101209.28;5070995;28;20208;-62
2022/05/29 03:15:48;;;;;;;9.33;3.77;;;13.90;65.80;;;16.81;49.79;101209.28;5018710;28;20236;-62
2022/05/29 03:18:43;;;;;;;12.77;3.80;;;13.80;65.90;;;16.76;49.89;101211.72;4848146;29;20214;-62
2022/05/29 03:21:09;;;;;;;9.47;3.17;;;13.80;66.30;;;16.79;50.05;101213.97;4701904;29;20241;-63
2022/05/29 03:23:35;;;;;;;9.40;3.00;;;13.80;66.40;;;16.79;50.45;101206.84;4532782;31;20272;-62
2022/05/29 03:28:43;;;;;;;10.40;3.63;;;13.80;66.50;;;16.80;50.39;101197.84;5171495;27;20400;-63
2022/05/29 03:31:16;;;;;;;12.70;3.70;;;13.80;66.90;;;16.81;50.01;101198.66;5132529;27;20699;-63
2022/05/29 03:33:46;;;;;;;9.53;3.80;;;13.80;66.90;;;16.83;50.16;101201.91;5149973;27;20259;-62
2022/05/29 03:36:15;;;;;;;10.67;3.90;;;13.80;67.00;;;16.81;50.55;101198.66;5132764;27;20637;-61
2022/05/29 03:38:42;;;;;;;7.83;3.93;;;13.80;67.20;;;16.80;50.73;101197.84;5071791;28;20315;-62
2022/05/29 03:41:15;;;;;;;10.27;3.37;;;13.80;67.20;;;16.80;50.48;101191.69;5041240;28;20225;-62
2022/05/29 03:43:43;;;;;;;7.17;3.03;;;13.80;67.30;;;16.79;50.29;101195.38;5078883;28;20199;-63
2022/05/29 03:46:16;;;;;;;13.30;3.77;;;13.80;67.40;;;16.78;50.62;101185.78;5082018;28;20726;-63
2022/05/29 03:48:57;;;;;;;11.67;4.40;;;13.80;67.40;;;16.79;50.68;101190.06;4956170;28;20533;-61
2022/05/29 03:54:02;;;;;;;11.63;4.70;;;13.80;67.60;;;16.77;50.62;101186.78;5172055;27;20629;-63
2022/05/29 03:56:30;;;;;;;11.13;3.70;;;13.70;67.70;;;16.76;50.87;101190.44;5124007;28;20211;-62
2022/05/29 03:58:57;;;;;;;9.17;3.53;;;13.70;67.80;;;16.77;50.85;101192.09;5107695;28;20207;-62
2022/05/29 04:01:24;;;;;;;10.30;4.63;;;13.70;67.80;;;16.77;50.80;101187.63;5128842;28;20220;-61
2022/05/29 04:03:54;;;;;;;8.57;3.37;;;13.70;67.90;;;16.74;51.23;101187.19;5104355;28;20201;-63
2022/05/29 04:06:24;;;;;;;12.23;3.40;;;13.70;68.00;;;16.74;50.95;101187.19;5108878;28;20222;-63
2022/05/29 04:17:00;;;;;;;11.53;3.63;;;13.70;68.30;;;16.81;50.86;101178.19;5171772;27;20653;-63
2022/05/29 04:19:27;;;;;;;11.50;3.47;;;13.70;68.10;;;16.81;50.92;101177.38;5150736;27;20186;-63
2022/05/29 04:21:54;;;;;;;11.13;3.97;;;13.70;68.30;;;16.81;51.41;101177.38;5131103;27;20196;-60
2022/05/29 04:24:21;;;;;;;7.83;3.53;;;13.70;68.30;;;16.82;51.23;101179.03;5148717;27;20277;-63
2022/05/29 04:26:48;;;;;;;10.73;3.70;;;13.70;68.40;;;16.85;51.06;101175.97;5098917;28;20202;-62
2022/05/29 04:29:15;;;;;;;6.13;3.00;;;13.70;68.50;;;16.88;51.16;101184.34;5017242;28;20196;-62
2022/05/29 04:32:59;;;;;;;8.87;3.33;;;13.80;68.60;;;16.90;51.16;101176.97;4922076;28;20194;-62
2022/05/29 04:38:12;;;;;;;7.97;3.10;;;13.80;68.50;;;16.96;51.45;101178.00;5171359;27;20625;-61
2022/05/29 04:40:41;;;;;;;11.33;4.20;;;13.90;68.50;;;17.00;51.23;101176.56;5131380;27;20269;-63
2022/05/29 04:43:09;;;;;;;9.67;3.37;;;13.90;68.50;;;17.02;51.36;101179.81;5150344;27;20201;-62
2022/05/29 04:45:39;;;;;;;9.80;3.60;;;13.90;69.20;;;17.03;51.09;101175.31;5137788;27;20254;-63
2022/05/29 04:48:07;;;;;;;8.03;3.13;;;13.90;68.30;;;17.04;51.10;101174.31;5095000;28;20201;-62
2022/05/29 04:50:36;;;;;;;7.30;3.47;;;13.90;68.50;;;17.04;51.10;101176.97;5092365;28;20731;-63
2022/05/29 04:53:03;;;;;;;8.13;3.60;;;13.90;68.50;;;17.05;51.34;101174.09;5084950;28;20207;-61
2022/05/29 04:55:32;;;;;;;13.73;3.67;;;14.00;68.50;;;17.07;51.06;101177.38;5082505;28;20244;-62
2022/05/29 04:57:58;;;;;;;9.83;3.60;;;13.90;69.20;;;17.08;50.82;101176.34;5054932;28;20225;-62
2022/05/29 05:00:24;;;;;;;13.37;4.30;;;14.00;69.30;;;17.07;51.27;101181.88;4879085;29;20267;-62
2022/05/29 05:05:22;;;;;;;8.83;3.40;;;14.00;68.60;;;17.06;50.88;101164.28;5197280;27;20395;-63
2022/05/29 05:07:50;;;;;;;9.80;3.03;;;14.00;68.70;;;17.04;51.20;101167.16;5156909;27;20204;-63
2022/05/29 05:10:17;;;;;;;16.37;3.67;;;13.90;68.70;;;17.04;51.17;101166.34;5184582;27;20190;-63
2022/05/29 05:12:45;;;;;;;8.37;3.10;;;13.90;68.70;;;17.05;51.36;101167.94;5152110;27;20213;-63
2022/05/29 05:15:15;;;;;;;9.67;3.70;;;13.90;68.90;;;17.05;51.25;101168.78;5147214;27;20295;-62
2022/05/29 05:17:42;;;;;;;10.50;3.43;;;14.00;69.00;;;17.06;51.15;101166.94;5129356;27;20205;-62
2022/05/29 05:20:10;;;;;;;8.83;3.53;;;13.90;68.90;;;17.05;51.31;101167.94;5131652;27;20197;-62
2022/05/29 05:22:38;;;;;;;11.30;3.07;;;13.90;68.90;;;17.04;51.39;101161.84;5019068;28;20196;-62
2022/05/29 05:25:05;;;;;;;12.07;3.20;;;13.90;68.90;;;17.05;51.51;101168.78;4902681;28;20578;-62
2022/05/29 05:30:11;;;;;;;12.20;3.90;;;13.90;68.90;;;17.04;51.39;101164.50;5171915;27;20625;-61
2022/05/29 05:32:38;;;;;;;11.50;3.57;;;13.90;69.30;;;17.03;51.73;101164.69;5110230;28;20278;-61
2022/05/29 05:35:07;;;;;;;9.50;3.87;;;13.90;69.40;;;17.01;51.80;101167.56;5127273;28;20215;-60
2022/05/29 05:37:36;;;;;;;8.87;3.27;;;13.90;69.60;;;17.01;51.82;101169.41;5126156;28;20206;-61
2022/05/29 05:40:08;;;;;;;12.53;4.00;;;13.90;69.60;;;17.01;51.67;101172.88;5121659;27;20652;-61
2022/05/29 05:42:36;;;;;;;8.43;3.13;;;13.90;69.70;;;17.02;52.16;101177.16;5107578;28;20287;-61
2022/05/29 05:45:08;;;;;;;12.13;3.80;;;13.90;69.80;;;17.04;52.09;101183.13;5092806;28;20238;-61
2022/05/29 05:50:20;;;;;;;9.17;3.40;;;13.90;70.10;;;17.08;51.99;101183.50;5171839;27;20537;-63
2022/05/29 05:52:47;;;;;;;9.73;4.13;;;14.00;70.30;;;17.11;52.14;101175.13;5147100;27;20580;-61
2022/05/29 05:55:14;;;;;;;7.33;3.73;;;14.00;70.60;;;17.10;52.02;101176.97;5122602;27;20223;-62
2022/05/29 05:57:41;;;;;;;9.60;3.13;;;13.90;70.10;;;17.11;52.36;101167.16;5117169;28;20210;-62
2022/05/29 06:00:12;;;;;;;7.53;2.90;;;14.00;70.40;;;17.14;52.10;101170.19;5111595;28;20834;-62
2022/05/29 06:02:41;;;;;;;8.60;3.03;;;14.00;70.50;;;17.20;51.66;101163.25;5062492;28;20658;-65
2022/05/29 06:05:09;;;;;;;10.63;3.40;;;14.00;70.30;;;17.23;51.88;101171.63;5023823;28;20276;-62
2022/05/29 06:11:33;;;;;;;8.07;3.00;;;14.10;70.30;;;17.15;52.36;101177.16;5165477;27;20642;-62
2022/05/29 06:14:00;;;;;;;9.10;3.07;;;14.10;70.10;;;17.16;52.08;101170.84;5124795;27;20203;-63
2022/05/29 06:16:26;;;;;;;14.90;4.17;;;14.00;70.00;;;17.21;52.03;101173.66;5134822;27;20293;-63
2022/05/29 06:18:53;;;;;;;9.67;3.33;;;14.10;70.10;;;17.25;51.69;101174.91;5149914;27;20190;-62
2022/05/29 06:21:20;;;;;;;7.47;3.27;;;14.10;69.90;;;17.29;51.66;101168.13;5132005;27;20270;-62
2022/05/29 06:23:47;;;;;;;10.43;2.57;;;14.10;69.90;;;17.32;51.62;101175.72;5131790;27;20194;-63
2022/05/29 06:26:14;;;;;;;7.17;3.00;;;14.10;69.50;;;17.30;51.57;101175.09;5145165;27;20214;-62
2022/05/29 06:29:26;;;;;;;10.23;3.23;;;14.10;69.50;;;17.15;51.44;101184.31;5054314;28;20544;-62
2022/05/29 06:34:45;;;;;;;9.77;3.03;;;14.00;69.90;;;17.04;51.92;101177.81;5167795;27;20647;-63
2022/05/29 06:37:12;;;;;;;6.67;2.67;;;13.90;70.10;;;17.05;52.39;101184.72;5130969;28;20191;-61
2022/05/29 06:39:39;;;;;;;6.00;2.80;;;14.00;70.90;;;17.08;52.79;101188.81;5130441;28;20552;-59
2022/05/29 06:42:06;;;;;;;12.23;3.10;;;14.00;71.40;;;17.10;52.92;101182.28;5127286;28;20199;-61
2022/05/29 06:44:36;;;;;;;7.17;2.57;;;14.00;71.70;;;17.12;53.31;101185.53;5105357;28;20201;-61
2022/05/29 06:47:07;;;;;;;7.73;2.73;;;14.00;72.20;;;17.17;53.01;101188.41;5063170;28;20287;-63
2022/05/29 06:49:34;;;;;;;7.63;2.97;;;14.00;72.20;;;17.21;52.95;101178.19;5036170;28;20661;-63
2022/05/29 06:53:32;;;;;;;6.70;2.60;;;14.00;72.30;;;17.14;53.12;101186.16;4889667;29;20215;-62
2022/05/29 06:58:37;;;;;;;6.37;2.30;;;14.10;72.70;;;17.18;54.00;101184.75;5163850;27;20635;-62
2022/05/29 07:09:22;;;;;;;10.57;2.80;;;14.00;73.90;;;17.14;54.45;101193.34;5034465;28;20197;-62
2022/05/29 07:11:56;;;;;;;6.53;2.57;;;14.00;74.10;;;17.14;54.41;101193.34;5055568;28;20205;-63
2022/05/29 07:14:24;;;;;;;5.50;2.17;;;13.90;74.10;;;17.14;54.54;101188.81;4944967;28;20205;-63
2022/05/29 07:16:51;;;;;;;5.23;2.67;;;14.00;74.20;;;17.15;54.29;101187.81;4833794;29;20674;-63
2022/05/29 07:19:32;;;;;;;5.23;2.37;;;14.00;74.10;;;17.10;54.34;101187.59;4808222;29;20348;-63
2022/05/29 07:24:36;;;;;;;10.27;3.37;;;14.00;74.20;;;17.05;54.75;101192.72;5169283;27;20636;-62
2022/05/29 07:27:04;;;;;;;9.50;3.13;;;13.90;74.50;;;17.02;54.52;101190.47;5127710;28;20230;-61
2022/05/29 07:29:31;;;;;;;5.93;2.17;;;13.90;74.30;;;17.02;54.81;101193.13;5110719;28;20187;-63
2022/05/29 07:31:58;;;;;;;5.33;2.70;;;13.90;74.30;;;17.05;54.99;101190.06;5129261;28;20199;-62
2022/05/29 07:34:25;;;;;;;9.87;2.63;;;13.90;74.80;;;17.08;54.84;101187.00;5119057;28;20276;-63
2022/05/29 07:36:52;;;;;;;8.27;2.87;;;13.90;74.80;;;17.12;54.91;101190.03;5076825;28;20252;-60
2022/05/29 07:39:20;;;;;;;7.03;2.77;;;13.90;74.80;;;17.13;54.83;101187.19;5007774;28;20206;-62
2022/05/29 07:44:31;;;;;;;7.33;3.10;;;13.90;74.50;;;17.22;54.38;101183.28;5168981;27;20645;-60
2022/05/29 07:46:58;;;;;;;9.07;3.20;;;14.00;74.60;;;17.27;54.43;101188.81;5098053;28;20206;-61
2022/05/29 07:49:25;;;;;;;10.53;3.20;;;14.00;74.70;;;17.31;54.67;101189.22;5095504;28;20282;-62
2022/05/29 07:51:51;;;;;;;8.20;2.80;;;14.10;75.00;;;17.34;54.54;101191.47;5129698;28;20648;-62
2022/05/29 07:54:20;;;;;;;6.43;2.93;;;14.10;74.80;;;17.28;54.64;101190.44;5101616;28;20622;-63
2022/05/29 07:56:47;;;;;;;9.27;3.27;;;14.00;75.20;;;17.23;55.27;101192.94;4998387;28;20199;-62
2022/05/29 07:59:16;;;;;;;9.57;3.13;;;14.00;75.60;;;17.21;55.57;101196.81;5038992;28;20255;-63
2022/05/29 08:02:59;;;;;;;6.53;3.50;;;14.10;76.30;;;17.14;56.19;101202.13;4926305;28;20293;-62
2022/05/29 08:08:08;;;;;;;6.90;2.83;;;14.10;76.80;;;17.17;56.10;101199.06;5172339;27;20629;-62
2022/05/29 08:10:39;;;;;;;8.00;2.60;;;14.10;76.50;;;17.22;56.10;101196.59;5115029;28;20191;-61
2022/05/29 08:13:06;;;;;;;4.93;2.40;;;14.00;76.30;;;17.29;56.05;101192.09;5089508;28;20293;-63
2022/05/29 08:15:35;;;;;;;6.67;3.10;;;14.10;76.80;;;17.37;56.03;101191.88;5060116;28;20685;-62
2022/05/29 08:18:02;;;;;;;5.90;2.47;;;14.10;76.90;;;17.42;55.69;101202.69;4985762;28;20585;-62
2022/05/29 08:20:30;;;;;;;5.53;2.90;;;14.10;76.60;;;17.42;55.86;101197.38;4879331;29;20274;-62
2022/05/29 08:22:57;;;;;;;5.90;2.50;;;14.10;76.60;;;17.41;56.11;101200.25;4923425;28;20218;-63
2022/05/29 08:31:59;;;;;;;10.97;4.07;;;14.20;76.90;;;17.44;55.57;101194.53;5113799;28;20191;-63
2022/05/29 08:34:26;;;;;;;9.27;4.27;;;14.20;76.60;;;17.47;55.54;101196.78;5129491;28;20198;-62
2022/05/29 08:36:59;;;;;;;4.93;3.40;;;14.20;76.00;;;17.46;55.31;101197.78;5103294;28;20193;-63
2022/05/29 08:39:26;;;;;;;8.87;3.00;;;14.20;75.70;;;17.53;55.27;101194.13;5074359;28;20193;-63
2022/05/29 08:41:56;;;;;;;7.47;3.47;;;14.20;76.00;;;17.67;54.80;101194.91;5066138;28;20211;-62
2022/05/29 08:44:39;;;;;;;6.00;3.13;;;14.20;75.80;;;17.68;54.67;101185.06;5072983;28;20671;-61
2022/05/29 08:50:51;;;;;;;5.93;2.23;;;14.30;75.50;;;17.71;54.72;101182.00;5169262;27;20637;-62
2022/05/29 08:53:35;;;;;;;5.47;2.67;;;14.40;75.10;;;17.75;54.66;101185.88;5112116;28;20187;-63
2022/05/29 08:56:15;;;;;;;4.77;2.30;;;14.50;75.50;;;17.84;54.52;101185.41;5093395;28;20269;-62
2022/05/29 08:59:03;;;;;;;3.43;2.40;;;14.50;75.60;;;17.98;54.33;101191.50;5059558;28;20286;-60
2022/05/29 09:02:07;;;;;;;3.57;1.90;;;14.60;75.30;;;18.04;54.08;101196.00;4971239;28;20204;-61
2022/05/29 09:04:41;;;;;;;2.80;1.60;;;14.60;75.00;;;18.06;53.91;101191.28;4900810;29;20204;-62
2022/05/29 09:07:17;;;;;;;3.67;1.90;;;14.60;75.40;;;18.07;54.12;101190.22;4838370;29;20237;-62
2022/05/29 09:09:43;;;;;;;3.27;2.00;;;14.70;74.50;;;18.09;53.83;101190.84;4546187;30;20355;-65
2022/05/29 09:12:09;;;;;;;3.93;2.33;;;14.70;74.30;;;18.13;53.79;101184.06;4397837;32;20299;-63
2022/05/29 09:16:45;;;;;;;6.97;2.83;;;14.70;74.10;;;18.09;53.18;101185.53;5152053;27;20635;-60
2022/05/29 09:19:33;;;;;;;8.63;3.77;;;14.70;73.30;;;18.14;53.10;101193.66;5085317;28;20255;-61
2022/05/29 09:22:10;;;;;;;6.23;3.13;;;14.80;74.10;;;18.22;52.69;101191.59;5071307;28;20639;-60
2022/05/29 09:25:07;;;;;;;8.40;2.83;;;14.80;72.20;;;18.22;52.75;101193.44;5049195;28;20287;-62
2022/05/29 09:27:38;;;;;;;4.73;2.77;;;14.80;72.70;;;18.30;52.39;101200.38;4970939;28;20261;-63
2022/05/29 09:30:07;;;;;;;7.10;2.53;;;14.90;72.40;;;18.35;51.74;101198.69;4877437;29;20211;-62
2022/05/29 09:32:51;;;;;;;4.80;2.17;;;14.90;70.80;;;18.46;51.03;101194.56;4705231;30;20326;-62
2022/05/29 09:35:18;;;;;;;4.13;2.03;;;14.90;70.20;;;18.67;50.11;101197.69;4649242;30;20246;-60
2022/05/29 09:40:27;;;;;;;4.07;2.40;;;15.00;69.40;;;18.85;50.42;101195.09;5214272;27;20631;-62
2022/05/29 09:42:54;;;;;;;8.90;3.27;;;15.20;70.20;;;18.83;50.31;101191.81;5159278;27;20234;-62
2022/05/29 09:45:32;;;;;;;6.97;3.00;;;15.30;70.00;;;18.71;50.09;101193.56;5145068;27;20289;-64
2022/05/29 09:50:54;;;;;;;5.27;2.63;;;15.30;69.40;;;18.40;50.87;101193.53;5082141;28;20233;-62
2022/05/29 09:53:27;;;;;;;5.10;2.00;;;15.20;69.60;;;18.28;51.19;101195.22;4988456;28;20206;-61
2022/05/29 09:56:01;;;;;;;8.93;2.53;;;15.20;69.80;;;18.18;51.29;101197.56;4872810;29;20222;-61
2022/05/29 09:58:41;;;;;;;5.83;2.27;;;15.10;69.50;;;18.14;51.41;101196.34;4720418;30;20688;-60
2022/05/29 10:03:54;;;;;;;5.77;2.10;;;15.00;69.60;;;18.05;51.74;101195.78;5215183;27;20599;-62
2022/05/29 10:06:29;;;;;;;6.60;2.30;;;14.90;70.50;;;18.08;52.26;101198.03;5154019;27;20214;-62
2022/05/29 10:09:14;;;;;;;3.50;3.20;;;14.90;71.50;;;18.10;51.73;101200.47;5139252;27;20190;-61
2022/05/29 10:11:45;;;;;;;6.07;3.00;;;14.80;70.30;;;18.12;51.81;101206.38;5163446;27;20217;-62
2022/05/29 10:14:35;;;;;;;5.63;3.23;;;14.80;70.70;;;18.11;52.06;101200.25;5118964;27;20725;-62
2022/05/29 10:17:12;;;;;;;6.30;2.73;;;14.80;71.20;;;18.22;52.10;101201.44;4984557;28;20266;-62
2022/05/29 10:19:44;;;;;;;6.13;2.40;;;14.90;71.50;;;18.38;51.85;101197.44;4795935;29;20396;-62
2022/05/29 10:22:10;;;;;;;6.90;3.17;;;15.00;71.40;;;18.64;51.54;101202.63;4605547;30;20325;-63
2022/05/29 10:24:37;;;;;;;4.97;2.57;;;15.00;71.50;;;18.85;50.53;101195.09;4533982;31;20623;-62
2022/05/29 10:27:27;;;;;;;7.03;2.60;;;15.10;70.20;;;18.99;49.63;101190.47;5165064;27;20366;-60
2022/05/29 10:29:58;;;;;;;4.80;1.70;;;15.20;69.30;;;19.14;49.43;101187.44;5123619;27;20251;-62
2022/05/29 10:32:31;;;;;;;4.03;1.80;;;15.40;69.20;;;19.25;48.53;101189.41;5130451;28;20230;-63
2022/05/29 10:35:26;;;;;;;4.07;1.90;;;15.50;68.20;;;19.31;48.82;101185.84;5069563;28;20686;-62
2022/05/29 10:37:54;;;;;;;5.13;2.37;;;15.60;68.30;;;19.42;48.48;101190.53;4954663;28;20194;-64
2022/05/29 10:40:26;;;;;;;7.43;2.80;;;15.70;68.00;;;19.40;48.04;101184.56;4961979;28;20207;-62
2022/05/29 10:42:59;;;;;;;4.80;2.00;;;15.70;66.70;;;19.31;47.97;101189.34;4978436;28;20206;-64
2022/05/29 10:46:11;;;;;;;2.90;1.50;;;15.80;66.40;;;19.17;47.49;101193.19;4936770;28;20232;-62
2022/05/29 10:49:47;;;;;;;3.40;2.00;;;15.70;66.20;;;19.00;48.36;101183.28;5161572;27;20636;-63
2022/05/29 10:53:04;;;;;;;6.17;2.37;;;15.70;66.10;;;18.89;48.73;101190.97;5130682;27;20209;-63
2022/05/29 10:55:45;;;;;;;3.33;1.90;;;15.70;66.70;;;18.84;48.66;101185.47;5115383;28;20228;-63
2022/05/29 10:58:50;;;;;;;5.03;1.97;;;15.60;66.20;;;18.74;49.07;101179.78;5112783;27;20254;-64
2022/05/29 11:05:13;;;;;;;3.30;1.70;;;15.50;67.80;;;18.57;49.99;101186.69;4787754;29;20281;-62
2022/05/29 11:07:49;;;;;;;5.67;2.40;;;15.50;68.30;;;18.52;50.67;101185.72;4516065;31;20248;-61
2022/05/29 11:13:26;;;;;;;4.03;1.70;;;15.40;69.50;;;18.57;51.06;101191.19;5172076;27;21098;-63
2022/05/29 11:16:07;;;;;;;4.67;1.90;;;15.30;70.20;;;18.72;50.84;101184.53;5086615;28;20216;-62
2022/05/29 11:19:31;;;;;;;3.83;1.83;;;15.30;70.30;;;18.85;50.78;101184.41;5068896;28;20270;-63
2022/05/29 11:22:22;;;;;;;3.97;2.40;;;15.40;70.30;;;19.02;50.28;101183.91;4989234;28;20241;-61
2022/05/29 11:25:10;;;;;;;6.30;2.90;;;15.50;70.10;;;19.16;49.90;101185.41;4911013;28;20307;-63
2022/05/29 11:28:07;;;;;;;13.87;6.20;;;15.50;69.60;;;19.31;49.84;101178.66;4798143;29;20207;-64
2022/05/29 11:33:35;;;;;;;5.40;2.40;;;15.70;69.80;;;19.67;48.87;101172.56;5165307;27;21174;-61
2022/05/29 11:36:38;;;;;;;5.80;2.43;;;15.90;68.50;;;19.80;47.97;101169.72;5085440;28;20231;-62
2022/05/29 11:39:29;;;;;;;4.40;2.17;;;16.10;67.70;;;19.88;47.67;101168.59;5077926;28;20208;-63
2022/05/29 11:42:07;;;;;;;4.83;1.80;;;16.20;67.10;;;19.89;47.45;101155.03;5061965;28;20210;-64
2022/05/29 11:44:45;;;;;;;5.73;2.33;;;16.30;65.90;;;19.92;47.52;101170.59;4975797;28;20193;-63
2022/05/29 11:53:00;;;;;;;4.47;2.10;;;16.40;64.70;;;20.03;46.75;101159.16;5157969;27;20635;-62
2022/05/29 11:55:32;;;;;;;5.17;2.00;;;16.50;64.80;;;20.07;46.27;101157.66;5107376;28;20301;-62
2022/05/29 11:58:07;;;;;;;7.90;2.80;;;16.50;63.80;;;20.03;45.82;101151.16;5127331;28;20226;-63
2022/05/29 12:00:41;;;;;;;4.03;2.00;;;16.50;62.60;;;19.98;45.78;101151.00;5091816;27;20191;-68
2022/05/29 12:03:25;;;;;;;5.47;2.03;;;16.50;62.80;;;19.79;46.29;101153.94;5086469;28;20197;-63
2022/05/29 12:06:01;;;;;;;4.77;2.47;;;16.50;63.40;;;19.62;47.05;101159.06;5013862;28;20272;-63
2022/05/29 12:08:38;;;;;;;3.33;2.33;;;16.30;64.70;;;19.42;47.73;101155.81;5016296;28;20198;-64
2022/05/29 12:11:04;;;;;;;5.67;2.77;;;16.30;65.40;;;19.30;48.54;101149.53;4884798;29;20312;-63
2022/05/29 12:13:30;;;;;;;6.10;2.80;;;16.20;66.10;;;19.22;49.09;101152.47;4632465;30;20218;-62
2022/05/29 12:18:43;;;;;;;4.67;2.40;;;16.10;66.90;;;19.01;49.73;101163.56;5172324;27;20836;-63
2022/05/29 12:21:15;;;;;;;5.83;2.53;;;16.00;67.50;;;18.93;50.38;101160.16;5134475;27;20249;-63
2022/05/29 12:23:48;;;;;;;4.07;1.73;;;15.90;68.60;;;18.84;50.45;101156.13;5150159;27;20201;-62
2022/05/29 12:26:23;;;;;;;4.67;2.10;;;15.80;68.60;;;18.72;50.51;101162.38;5126520;27;20219;-61
2022/05/29 12:28:57;;;;;;;6.27;2.13;;;15.70;68.60;;;18.61;50.71;101155.88;5027172;28;20277;-64
2022/05/29 12:31:32;;;;;;;2.60;1.87;;;15.50;68.80;;;18.55;50.57;101156.75;5007792;28;20298;-62
2022/05/29 12:34:00;;;;;;;3.13;2.20;;;15.50;68.30;;;18.52;49.95;101153.72;4856835;29;20214;-61
2022/05/29 12:37:06;;;;;;;4.57;2.03;;;15.30;66.90;;;18.47;49.89;101151.69;4821315;29;20232;-62
2022/05/29 12:39:32;;;;;;;5.97;2.73;;;15.30;67.80;;;18.60;49.78;101154.25;4644344;30;20216;-62